createdAt,value
2018-07-24T00:00:16.743Z,0
2018-07-24T00:00:57.255Z,0
2018-07-24T00:01:37.788Z,0
2018-07-24T00:02:18.319Z,0
2018-07-24T00:02:58.837Z,0
2018-07-24T00:03:39.370Z,0
2018-07-24T00:04:19.889Z,0
2018-07-24T00:05:00.441Z,0
2018-07-24T00:05:40.968Z,0
2018-07-24T00:06:21.469Z,0
2018-07-24T00:07:01.981Z,0
2018-07-24T00:07:42.513Z,0
2018-07-24T00:08:23.043Z,0
2018-07-24T00:09:03.586Z,0
2018-07-24T00:09:44.112Z,0
2018-07-24T00:10:24.634Z,0
2018-07-24T00:11:05.229Z,0
2018-07-24T00:11:45.676Z,0
2018-07-24T00:12:26.199Z,0
2018-07-24T00:13:06.733Z,0
2018-07-24T00:13:47.260Z,0
2018-07-24T00:14:27.770Z,0
2018-07-24T00:15:08.304Z,0
2018-07-24T00:15:48.819Z,0
2018-07-24T00:16:29.323Z,0
2018-07-24T00:17:09.851Z,0
2018-07-24T00:17:50.372Z,0
2018-07-24T00:18:30.866Z,0
2018-07-24T00:19:11.383Z,0
2018-07-24T00:19:51.919Z,0
2018-07-24T00:20:32.430Z,0
2018-07-24T00:21:12.994Z,0
2018-07-24T00:21:53.437Z,0
2018-07-24T00:22:33.965Z,0
2018-07-24T00:23:14.438Z,0
2018-07-24T00:23:54.935Z,0
2018-07-24T00:24:35.411Z,0
2018-07-24T00:25:15.935Z,0
2018-07-24T00:25:56.445Z,0
2018-07-24T00:26:36.961Z,0
2018-07-24T00:27:17.486Z,0
2018-07-24T00:27:57.998Z,0
2018-07-24T00:28:38.592Z,0
2018-07-24T00:29:19.098Z,0
2018-07-24T00:29:59.608Z,0
2018-07-24T00:30:40.123Z,0
2018-07-24T00:31:20.640Z,0
2018-07-24T00:32:01.168Z,0
2018-07-24T00:32:41.675Z,0
2018-07-24T00:33:22.196Z,0
2018-07-24T00:34:02.704Z,0
2018-07-24T00:34:43.240Z,0
2018-07-24T00:35:23.753Z,0
2018-07-24T00:36:04.300Z,0
2018-07-24T00:36:44.795Z,0
2018-07-24T00:37:25.321Z,0
2018-07-24T00:38:05.847Z,0
2018-07-24T00:38:46.438Z,0
2018-07-24T00:39:27.052Z,0
2018-07-24T00:40:07.566Z,0
2018-07-24T00:40:48.088Z,0
2018-07-24T00:41:28.600Z,0
2018-07-24T00:42:09.116Z,0
2018-07-24T00:42:49.636Z,0
2018-07-24T00:43:30.151Z,0
2018-07-24T00:44:10.655Z,0
2018-07-24T00:44:51.156Z,0
2018-07-24T00:45:31.660Z,0
2018-07-24T00:46:12.173Z,0
2018-07-24T00:46:52.698Z,0
2018-07-24T00:47:33.232Z,0
2018-07-24T00:48:13.739Z,0
2018-07-24T00:48:54.269Z,0
2018-07-24T00:49:34.792Z,0
2018-07-24T00:50:15.321Z,0
2018-07-24T00:50:55.839Z,0
2018-07-24T00:51:36.363Z,0
2018-07-24T00:52:16.893Z,0
2018-07-24T00:52:57.409Z,0
2018-07-24T00:53:37.938Z,0
2018-07-24T00:54:18.546Z,0
2018-07-24T00:54:58.969Z,0
2018-07-24T00:55:39.499Z,0
2018-07-24T00:56:20.019Z,0
2018-07-24T00:57:00.561Z,0
2018-07-24T00:57:41.102Z,0
2018-07-24T00:58:21.618Z,0
2018-07-24T00:59:02.119Z,0
2018-07-24T00:59:42.655Z,0
2018-07-24T01:00:23.163Z,0
2018-07-24T01:01:03.682Z,0
2018-07-24T01:01:44.207Z,0
2018-07-24T01:02:24.746Z,0
2018-07-24T01:03:05.238Z,0
2018-07-24T01:03:45.766Z,0
2018-07-24T01:04:26.291Z,0
2018-07-24T01:05:06.793Z,0
2018-07-24T01:05:47.332Z,0
2018-07-24T01:06:27.865Z,0
2018-07-24T01:07:08.394Z,0
2018-07-24T01:07:48.893Z,0
2018-07-24T01:08:29.497Z,0
2018-07-24T01:09:09.961Z,0
2018-07-24T01:09:50.507Z,0
2018-07-24T01:10:31.021Z,0
2018-07-24T01:11:11.541Z,0
2018-07-24T01:11:52.076Z,0
2018-07-24T01:12:32.603Z,0
2018-07-24T01:13:13.112Z,0
2018-07-24T01:13:53.633Z,0
2018-07-24T01:14:34.162Z,0
2018-07-24T01:15:14.688Z,0
2018-07-24T01:15:55.196Z,0
2018-07-24T01:16:35.735Z,0
2018-07-24T01:17:16.243Z,0
2018-07-24T01:17:56.758Z,0
2018-07-24T01:18:37.292Z,0
2018-07-24T01:19:17.800Z,0
2018-07-24T01:19:58.310Z,0
2018-07-24T01:20:38.828Z,0
2018-07-24T01:21:19.353Z,0
2018-07-24T01:21:59.865Z,0
2018-07-24T01:22:40.386Z,0
2018-07-24T01:23:20.924Z,0
2018-07-24T01:24:01.456Z,0
2018-07-24T01:24:41.968Z,0
2018-07-24T01:25:22.505Z,0
2018-07-24T01:26:03.037Z,0
2018-07-24T01:26:43.557Z,0
2018-07-24T01:27:24.088Z,0
2018-07-24T01:28:04.608Z,0
2018-07-24T01:28:45.145Z,0
2018-07-24T01:29:25.682Z,0
2018-07-24T01:30:06.203Z,0
2018-07-24T01:30:46.985Z,0
2018-07-24T01:31:27.265Z,0
2018-07-24T01:32:07.800Z,0
2018-07-24T01:32:48.316Z,0
2018-07-24T01:33:28.844Z,0
2018-07-24T01:34:09.354Z,0
2018-07-24T01:34:49.886Z,0
2018-07-24T01:35:30.415Z,0
2018-07-24T01:36:10.913Z,0
2018-07-24T01:36:51.442Z,0
2018-07-24T01:37:31.956Z,0
2018-07-24T01:38:12.483Z,0
2018-07-24T01:38:53.010Z,0
2018-07-24T01:39:33.525Z,0
2018-07-24T01:40:14.050Z,0
2018-07-24T01:40:54.562Z,0
2018-07-24T01:41:35.087Z,0
2018-07-24T01:42:15.607Z,0
2018-07-24T01:42:56.147Z,0
2018-07-24T01:43:36.654Z,0
2018-07-24T01:44:17.174Z,0
2018-07-24T01:44:57.693Z,0
2018-07-24T01:45:38.210Z,0
2018-07-24T01:46:18.725Z,0
2018-07-24T01:46:59.247Z,0
2018-07-24T01:47:39.778Z,0
2018-07-24T01:48:20.293Z,0
2018-07-24T01:49:00.807Z,0
2018-07-24T01:49:41.350Z,0
2018-07-24T01:50:21.867Z,0
2018-07-24T01:51:02.368Z,0
2018-07-24T01:51:42.867Z,0
2018-07-24T01:52:23.367Z,0
2018-07-24T01:53:03.886Z,0
2018-07-24T01:53:44.376Z,0
2018-07-24T01:54:24.897Z,0
2018-07-24T01:55:05.409Z,0
2018-07-24T01:55:45.926Z,0
2018-07-24T01:56:26.447Z,0
2018-07-24T01:57:06.977Z,0
2018-07-24T01:57:47.480Z,0
2018-07-24T01:58:28.000Z,0
2018-07-24T01:59:08.522Z,0
2018-07-24T01:59:49.048Z,0
2018-07-24T02:00:29.576Z,0
2018-07-24T02:01:10.104Z,0
2018-07-24T02:01:50.620Z,0
2018-07-24T02:02:31.142Z,0
2018-07-24T02:03:11.680Z,0
2018-07-24T02:03:52.202Z,0
2018-07-24T02:04:32.726Z,0
2018-07-24T02:05:13.236Z,0
2018-07-24T02:05:53.751Z,0
2018-07-24T02:06:34.294Z,0
2018-07-24T02:07:14.800Z,0
2018-07-24T02:07:55.322Z,0
2018-07-24T02:08:35.846Z,0
2018-07-24T02:09:16.363Z,0
2018-07-24T02:09:56.883Z,0
2018-07-24T02:10:37.416Z,0
2018-07-24T02:11:17.933Z,0
2018-07-24T02:11:58.459Z,0
2018-07-24T02:12:38.977Z,0
2018-07-24T02:13:19.502Z,0
2018-07-24T02:14:00.039Z,0
2018-07-24T02:14:40.557Z,0
2018-07-24T02:15:21.084Z,0
2018-07-24T02:16:01.613Z,0
2018-07-24T02:16:42.140Z,0
2018-07-24T02:17:22.663Z,0
2018-07-24T02:18:03.194Z,0
2018-07-24T02:18:43.721Z,0
2018-07-24T02:19:24.245Z,0
2018-07-24T02:20:04.769Z,0
2018-07-24T02:20:45.307Z,0
2018-07-24T02:21:25.827Z,0
2018-07-24T02:22:06.368Z,0
2018-07-24T02:22:46.894Z,0
2018-07-24T02:23:27.419Z,0
2018-07-24T02:24:07.948Z,0
2018-07-24T02:24:48.478Z,0
2018-07-24T02:25:28.921Z,0
2018-07-24T02:26:09.443Z,0
2018-07-24T02:26:49.905Z,0
2018-07-24T02:27:30.385Z,0
2018-07-24T02:28:10.888Z,0
2018-07-24T02:28:51.413Z,0
2018-07-24T02:29:31.931Z,0
2018-07-24T02:30:12.459Z,0
2018-07-24T02:30:52.993Z,0
2018-07-24T02:31:33.524Z,0
2018-07-24T02:32:14.022Z,0
2018-07-24T02:32:54.571Z,0
2018-07-24T02:33:35.057Z,0
2018-07-24T02:34:15.551Z,0
2018-07-24T02:34:56.073Z,0
2018-07-24T02:35:36.556Z,0
2018-07-24T02:36:17.031Z,0
2018-07-24T02:36:57.540Z,0
2018-07-24T02:37:38.016Z,0
2018-07-24T02:38:18.519Z,0
2018-07-24T02:38:59.044Z,0
2018-07-24T02:39:39.548Z,0
2018-07-24T02:40:20.090Z,0
2018-07-24T02:41:00.622Z,0
2018-07-24T02:41:41.148Z,0
2018-07-24T02:42:21.649Z,0
2018-07-24T02:43:02.170Z,0
2018-07-24T02:43:42.678Z,0
2018-07-24T02:44:23.197Z,0
2018-07-24T02:45:03.738Z,0
2018-07-24T02:45:44.286Z,0
2018-07-24T02:46:24.754Z,0
2018-07-24T02:47:05.232Z,0
2018-07-24T02:47:45.748Z,0
2018-07-24T02:48:26.269Z,0
2018-07-24T02:49:06.778Z,0
2018-07-24T02:49:47.302Z,0
2018-07-24T02:50:27.834Z,0
2018-07-24T02:51:08.314Z,0
2018-07-24T02:51:48.833Z,0
2018-07-24T02:52:29.295Z,0
2018-07-24T02:53:09.793Z,0
2018-07-24T02:53:50.307Z,0
2018-07-24T02:54:30.788Z,0
2018-07-24T02:55:11.354Z,0
2018-07-24T02:55:51.825Z,0
2018-07-24T02:56:32.345Z,0
2018-07-24T02:57:12.810Z,0
2018-07-24T02:57:53.321Z,0
2018-07-24T02:58:33.844Z,0
2018-07-24T02:59:14.379Z,0
2018-07-24T02:59:54.857Z,0
2018-07-24T03:00:35.335Z,0
2018-07-24T03:01:15.857Z,0
2018-07-24T03:01:56.332Z,0
2018-07-24T03:02:36.888Z,0
2018-07-24T03:03:17.376Z,0
2018-07-24T03:03:57.842Z,0
2018-07-24T03:04:38.344Z,0
2018-07-24T03:05:18.868Z,0
2018-07-24T03:05:59.359Z,0
2018-07-24T03:06:39.866Z,0
2018-07-24T03:07:20.384Z,0
2018-07-24T03:08:00.858Z,0
2018-07-24T03:08:41.369Z,4
2018-07-24T03:09:21.852Z,4
2018-07-24T03:10:02.343Z,4
2018-07-24T03:10:42.843Z,0
2018-07-24T03:11:23.359Z,0
2018-07-24T03:12:03.884Z,0
2018-07-24T03:12:44.372Z,4
2018-07-24T03:13:24.870Z,4
2018-07-24T03:14:05.371Z,0
2018-07-24T03:14:45.912Z,4
2018-07-24T03:15:26.382Z,4
2018-07-24T03:16:06.898Z,4
2018-07-24T03:16:47.588Z,4
2018-07-24T03:17:27.946Z,4
2018-07-24T03:18:08.450Z,4
2018-07-24T03:18:48.967Z,4
2018-07-24T03:19:29.438Z,8
2018-07-24T03:20:09.944Z,8
2018-07-24T03:20:50.466Z,8
2018-07-24T03:21:30.978Z,12
2018-07-24T03:22:11.507Z,12
2018-07-24T03:22:52.020Z,12
2018-07-24T03:23:32.544Z,12
2018-07-24T03:24:13.062Z,12
2018-07-24T03:24:53.581Z,16
2018-07-24T03:25:34.107Z,16
2018-07-24T03:26:14.634Z,20
2018-07-24T03:26:55.158Z,16
2018-07-24T03:27:35.681Z,20
2018-07-24T03:28:16.175Z,24
2018-07-24T03:28:56.664Z,24
2018-07-24T03:29:37.158Z,28
2018-07-24T03:30:17.665Z,28
2018-07-24T03:30:58.176Z,32
2018-07-24T03:31:38.661Z,36
2018-07-24T03:32:19.172Z,40
2018-07-24T03:32:59.660Z,40
2018-07-24T03:33:40.160Z,44
2018-07-24T03:34:20.679Z,48
2018-07-24T03:35:01.206Z,52
2018-07-24T03:35:41.662Z,56
2018-07-24T03:36:22.142Z,56
2018-07-24T03:37:02.656Z,64
2018-07-24T03:37:43.204Z,68
2018-07-24T03:38:23.654Z,72
2018-07-24T03:39:04.138Z,80
2018-07-24T03:39:44.692Z,84
2018-07-24T03:40:25.127Z,88
2018-07-24T03:41:05.668Z,96
2018-07-24T03:41:46.152Z,100
2018-07-24T03:42:26.660Z,108
2018-07-24T03:43:07.221Z,112
2018-07-24T03:43:47.716Z,120
2018-07-24T03:44:28.149Z,128
2018-07-24T03:45:08.703Z,136
2018-07-24T03:45:49.171Z,144
2018-07-24T03:46:29.716Z,152
2018-07-24T03:47:10.186Z,160
2018-07-24T03:47:50.706Z,168
2018-07-24T03:48:31.167Z,176
2018-07-24T03:49:11.680Z,188
2018-07-24T03:49:52.147Z,196
2018-07-24T03:50:32.617Z,204
2018-07-24T03:51:13.110Z,220
2018-07-24T03:51:53.633Z,228
2018-07-24T03:52:34.091Z,240
2018-07-24T03:53:14.646Z,252
2018-07-24T03:53:55.113Z,264
2018-07-24T03:54:35.627Z,280
2018-07-24T03:55:16.149Z,292
2018-07-24T03:55:56.652Z,308
2018-07-24T03:56:37.149Z,320
2018-07-24T03:57:17.655Z,336
2018-07-24T03:57:58.216Z,356
2018-07-24T03:58:38.642Z,372
2018-07-24T03:59:19.133Z,388
2018-07-24T03:59:59.659Z,408
2018-07-24T04:00:40.146Z,424
2018-07-24T04:01:20.604Z,444
2018-07-24T04:02:01.123Z,464
2018-07-24T04:02:41.666Z,488
2018-07-24T04:03:22.131Z,508
2018-07-24T04:04:02.572Z,532
2018-07-24T04:04:43.075Z,552
2018-07-24T04:05:23.591Z,576
2018-07-24T04:06:04.085Z,600
2018-07-24T04:06:44.593Z,628
2018-07-24T04:07:25.065Z,648
2018-07-24T04:08:05.575Z,672
2018-07-24T04:08:46.052Z,704
2018-07-24T04:09:26.558Z,728
2018-07-24T04:10:07.078Z,756
2018-07-24T04:10:47.560Z,784
2018-07-24T04:11:28.070Z,812
2018-07-24T04:12:08.572Z,844
2018-07-24T04:12:49.055Z,872
2018-07-24T04:13:29.576Z,904
2018-07-24T04:14:10.071Z,932
2018-07-24T04:14:50.606Z,964
2018-07-24T04:15:31.054Z,996
2018-07-24T04:16:11.574Z,1028
2018-07-24T04:16:52.060Z,1064
2018-07-24T04:17:32.528Z,1096
2018-07-24T04:18:13.076Z,1132
2018-07-24T04:18:53.541Z,1168
2018-07-24T04:19:34.068Z,1200
2018-07-24T04:20:14.596Z,1236
2018-07-24T04:20:55.114Z,1268
2018-07-24T04:21:35.604Z,1304
2018-07-24T04:22:16.120Z,1340
2018-07-24T04:22:56.642Z,1376
2018-07-24T04:23:37.191Z,1408
2018-07-24T04:24:17.660Z,1444
2018-07-24T04:24:58.157Z,1476
2018-07-24T04:25:38.685Z,1512
2018-07-24T04:26:19.163Z,1548
2018-07-24T04:26:59.682Z,1584
2018-07-24T04:27:40.143Z,1620
2018-07-24T04:28:20.688Z,1656
2018-07-24T04:29:01.190Z,1692
2018-07-24T04:29:41.675Z,1728
2018-07-24T04:30:22.189Z,1764
2018-07-24T04:31:02.746Z,1800
2018-07-24T04:31:43.199Z,1840
2018-07-24T04:32:23.695Z,1892
2018-07-24T04:33:04.227Z,1952
2018-07-24T04:33:44.678Z,2008
2018-07-24T04:34:25.197Z,2052
2018-07-24T04:35:05.711Z,2092
2018-07-24T04:35:46.231Z,2144
2018-07-24T04:36:26.789Z,2216
2018-07-24T04:37:07.327Z,2320
2018-07-24T04:37:47.823Z,2396
2018-07-24T04:38:28.368Z,2524
2018-07-24T04:39:08.873Z,2540
2018-07-24T04:39:49.454Z,2472
2018-07-24T04:40:29.919Z,2412
2018-07-24T04:41:10.417Z,2480
2018-07-24T04:41:50.966Z,2644
2018-07-24T04:42:31.473Z,2796
2018-07-24T04:43:11.971Z,2768
2018-07-24T04:43:52.431Z,2600
2018-07-24T04:44:33.017Z,2548
2018-07-24T04:45:13.425Z,2568
2018-07-24T04:45:53.922Z,2592
2018-07-24T04:46:34.413Z,2608
2018-07-24T04:47:14.893Z,2632
2018-07-24T04:47:55.415Z,2668
2018-07-24T04:48:35.909Z,2700
2018-07-24T04:49:16.404Z,2732
2018-07-24T04:49:56.911Z,2764
2018-07-24T04:50:37.422Z,2808
2018-07-24T04:51:17.913Z,2832
2018-07-24T04:51:58.392Z,2848
2018-07-24T04:52:38.937Z,2864
2018-07-24T04:53:19.436Z,2896
2018-07-24T04:53:59.938Z,2940
2018-07-24T04:54:40.405Z,2980
2018-07-24T04:55:20.919Z,3040
2018-07-24T04:56:01.427Z,3180
2018-07-24T04:56:41.877Z,3512
2018-07-24T04:57:22.460Z,3688
2018-07-24T04:58:02.914Z,3700
2018-07-24T04:58:43.422Z,3616
2018-07-24T04:59:23.952Z,3472
2018-07-24T05:00:04.398Z,3456
2018-07-24T05:00:45.148Z,3496
2018-07-24T05:01:25.486Z,3496
2018-07-24T05:02:05.941Z,3452
2018-07-24T05:02:46.469Z,3420
2018-07-24T05:03:27.036Z,3456
2018-07-24T05:04:07.505Z,3476
2018-07-24T05:04:48.252Z,3504
2018-07-24T05:05:28.577Z,3532
2018-07-24T05:06:09.102Z,3560
2018-07-24T05:06:49.597Z,3580
2018-07-24T05:07:30.046Z,3624
2018-07-24T05:08:10.551Z,3736
2018-07-24T05:08:51.060Z,3892
2018-07-24T05:09:31.588Z,3904
2018-07-24T05:10:12.092Z,3836
2018-07-24T05:10:52.521Z,3836
2018-07-24T05:11:33.046Z,3912
2018-07-24T05:14:01.530Z,4336
2018-07-24T05:14:42.075Z,4240
2018-07-24T05:15:22.599Z,4168
2018-07-24T05:16:03.131Z,4040
2018-07-24T05:16:43.775Z,4012
2018-07-24T05:17:24.238Z,4068
2018-07-24T05:18:04.772Z,4128
2018-07-24T05:18:45.284Z,4096
2018-07-24T05:19:25.808Z,4104
2018-07-24T05:20:06.343Z,4064
2018-07-24T05:20:46.856Z,4116
2018-07-24T05:21:27.428Z,4140
2018-07-24T05:22:07.878Z,4140
2018-07-24T05:22:48.599Z,4136
2018-07-24T05:23:28.941Z,4164
2018-07-24T05:24:09.397Z,4220
2018-07-24T05:24:49.914Z,4324
2018-07-24T05:25:30.430Z,4356
2018-07-24T05:26:10.942Z,4372
2018-07-24T05:26:51.474Z,4296
2018-07-24T05:27:32.063Z,4288
2018-07-24T05:28:12.548Z,4312
2018-07-24T05:28:53.069Z,4348
2018-07-24T05:29:33.523Z,4376
2018-07-24T05:30:14.001Z,4380
2018-07-24T05:30:54.486Z,4400
2018-07-24T05:31:34.975Z,4404
2018-07-24T05:32:15.521Z,4424
2018-07-24T05:32:56.061Z,4436
2018-07-24T05:33:36.517Z,4440
2018-07-24T05:34:17.004Z,4456
2018-07-24T05:34:57.488Z,4480
2018-07-24T05:35:38.012Z,4488
2018-07-24T05:36:18.463Z,4500
2018-07-24T05:36:58.985Z,4520
2018-07-24T05:37:39.463Z,4532
2018-07-24T05:38:20.131Z,4556
2018-07-24T05:39:00.600Z,4576
2018-07-24T05:39:41.114Z,4588
2018-07-24T05:40:21.645Z,4604
2018-07-24T05:41:02.125Z,4608
2018-07-24T05:41:42.637Z,4632
2018-07-24T05:42:23.157Z,4656
2018-07-24T05:43:03.650Z,4656
2018-07-24T05:43:44.134Z,4672
2018-07-24T05:44:24.646Z,4684
2018-07-24T05:45:05.208Z,4692
2018-07-24T05:45:45.671Z,4712
2018-07-24T05:46:26.129Z,4732
2018-07-24T05:47:06.667Z,4744
2018-07-24T05:47:47.155Z,4752
2018-07-24T05:48:27.683Z,4776
2018-07-24T05:49:08.165Z,4796
2018-07-24T05:49:48.693Z,4816
2018-07-24T05:50:29.183Z,4840
2018-07-24T05:51:09.668Z,4880
2018-07-24T05:51:50.211Z,4964
2018-07-24T05:52:30.695Z,4996
2018-07-24T05:53:11.193Z,5024
2018-07-24T05:53:51.678Z,5172
2018-07-24T05:54:32.264Z,5448
2018-07-24T05:55:12.789Z,5748
2018-07-24T05:55:53.251Z,5560
2018-07-24T05:56:33.693Z,5624
2018-07-24T05:57:14.222Z,5608
2018-07-24T05:57:54.682Z,5948
2018-07-24T05:58:35.204Z,6572
2018-07-24T05:59:15.696Z,7472
2018-07-24T05:59:56.191Z,7928
2018-07-24T06:00:36.733Z,8412
2018-07-24T06:01:17.237Z,8868
2018-07-24T06:01:57.729Z,9004
2018-07-24T06:02:38.194Z,8836
2018-07-24T06:03:18.645Z,8456
2018-07-24T06:03:59.137Z,8080
2018-07-24T06:04:39.649Z,7884
2018-07-24T06:05:20.161Z,7868
2018-07-24T06:06:00.701Z,7888
2018-07-24T06:06:41.125Z,7876
2018-07-24T06:07:21.743Z,7860
2018-07-24T06:08:02.089Z,7880
2018-07-24T06:08:42.666Z,7884
2018-07-24T06:09:23.158Z,7904
2018-07-24T06:10:03.711Z,7940
2018-07-24T06:10:44.276Z,7984
2018-07-24T06:11:24.693Z,8028
2018-07-24T06:12:05.195Z,8076
2018-07-24T06:12:45.650Z,8120
2018-07-24T06:13:26.440Z,8156
2018-07-24T06:14:07.147Z,8180
2018-07-24T06:14:47.643Z,8164
2018-07-24T06:15:28.133Z,8164
2018-07-24T06:16:08.633Z,8156
2018-07-24T06:16:49.217Z,8148
2018-07-24T06:17:29.769Z,8152
2018-07-24T06:18:10.137Z,8132
2018-07-24T06:18:50.711Z,8128
2018-07-24T06:19:31.234Z,8104
2018-07-24T06:20:11.719Z,8084
2018-07-24T06:20:52.240Z,8072
2018-07-24T06:21:32.778Z,8048
2018-07-24T06:22:13.250Z,8060
2018-07-24T06:22:53.923Z,8044
2018-07-24T06:23:34.380Z,8020
2018-07-24T06:24:14.918Z,7988
2018-07-24T06:24:55.454Z,7940
2018-07-24T06:25:36.018Z,7876
2018-07-24T06:26:16.430Z,7780
2018-07-24T06:26:57.074Z,7688
2018-07-24T06:27:37.546Z,7632
2018-07-24T06:28:18.125Z,7592
2018-07-24T06:28:58.553Z,7584
2018-07-24T06:29:39.076Z,7572
2018-07-24T06:30:19.574Z,7564
2018-07-24T06:31:00.162Z,7544
2018-07-24T06:31:40.649Z,7480
2018-07-24T06:32:21.137Z,7428
2018-07-24T06:33:01.807Z,7408
2018-07-24T06:33:42.225Z,7400
2018-07-24T06:34:22.708Z,7412
2018-07-24T06:35:03.224Z,7412
2018-07-24T06:35:43.732Z,7404
2018-07-24T06:36:24.313Z,7412
2018-07-24T06:37:04.848Z,7412
2018-07-24T06:37:45.341Z,7400
2018-07-24T06:38:25.825Z,7384
2018-07-24T06:39:06.313Z,7384
2018-07-24T06:39:46.839Z,7384
2018-07-24T06:40:27.319Z,7388
2018-07-24T06:41:07.944Z,7392
2018-07-24T06:41:48.416Z,7404
2018-07-24T06:42:28.995Z,7424
2018-07-24T06:43:09.596Z,7436
2018-07-24T06:43:50.118Z,7384
2018-07-24T06:44:30.636Z,7344
2018-07-24T06:45:11.110Z,7284
2018-07-24T06:45:51.637Z,7264
2018-07-24T06:46:32.281Z,7256
2018-07-24T06:47:12.764Z,7236
2018-07-24T06:47:53.254Z,7260
2018-07-24T06:48:33.868Z,7236
2018-07-24T06:49:14.346Z,7224
2018-07-24T06:49:54.888Z,7232
2018-07-24T06:50:35.534Z,7248
2018-07-24T06:51:16.077Z,7272
2018-07-24T06:51:56.632Z,7328
2018-07-24T06:52:37.123Z,7400
2018-07-24T06:53:17.641Z,7452
2018-07-24T06:53:58.146Z,7508
2018-07-24T06:54:38.608Z,7564
2018-07-24T06:55:19.109Z,7608
2018-07-24T06:55:59.617Z,7652
2018-07-24T06:56:40.179Z,7672
2018-07-24T06:57:20.636Z,7704
2018-07-24T06:58:01.968Z,7720
2018-07-24T06:58:42.014Z,7720
2018-07-24T06:59:22.504Z,7712
2018-07-24T07:00:02.997Z,7708
2018-07-24T07:00:43.453Z,7732
2018-07-24T07:01:23.969Z,7720
2018-07-24T07:02:04.440Z,7716
2018-07-24T07:02:44.945Z,7716
2018-07-24T07:03:25.477Z,7716
2018-07-24T07:04:06.074Z,7720
2018-07-24T07:04:46.692Z,7732
2018-07-24T07:05:27.212Z,7736
2018-07-24T07:06:07.641Z,7736
2018-07-24T07:06:48.204Z,7736
2018-07-24T07:07:28.676Z,7716
2018-07-24T07:08:09.175Z,7716
2018-07-24T07:08:49.660Z,7704
2018-07-24T07:09:30.138Z,7696
2018-07-24T07:10:10.737Z,7704
2018-07-24T07:10:51.140Z,7704
2018-07-24T07:11:31.690Z,7704
2018-07-24T07:12:12.146Z,7700
2018-07-24T07:12:52.785Z,7712
2018-07-24T07:13:33.269Z,7708
2018-07-24T07:14:13.841Z,7692
2018-07-24T07:14:54.347Z,7696
2018-07-24T07:15:34.817Z,7700
2018-07-24T07:16:15.356Z,7696
2018-07-24T07:16:56.471Z,7684
2018-07-24T07:17:36.370Z,7672
2018-07-24T07:18:16.928Z,7648
2018-07-24T07:18:57.453Z,7644
2018-07-24T07:19:37.897Z,7620
2018-07-24T07:20:18.418Z,7612
2018-07-24T07:20:58.903Z,7616
2018-07-24T07:21:39.385Z,7612
2018-07-24T07:22:19.928Z,7608
2018-07-24T07:23:00.397Z,7604
2018-07-24T07:23:40.928Z,7600
2018-07-24T07:24:22.484Z,7596
2018-07-24T07:25:02.993Z,7580
2018-07-24T07:25:43.423Z,7568
2018-07-24T07:26:23.920Z,7548
2018-07-24T07:27:04.680Z,7540
2018-07-24T07:27:45.225Z,7524
2018-07-24T07:28:25.766Z,7500
2018-07-24T07:29:06.239Z,7492
2018-07-24T07:29:46.742Z,7468
2018-07-24T07:30:27.290Z,7464
2018-07-24T07:31:07.816Z,7448
2018-07-24T07:31:48.298Z,7436
2018-07-24T07:32:28.827Z,7428
2018-07-24T07:33:09.281Z,7408
2018-07-24T07:33:49.826Z,7404
2018-07-24T07:34:30.237Z,7376
2018-07-24T07:35:10.795Z,7364
2018-07-24T07:35:51.277Z,7340
2018-07-24T07:36:31.830Z,7316
2018-07-24T07:37:12.256Z,7292
2018-07-24T07:37:52.782Z,7276
2018-07-24T07:38:33.320Z,7268
2018-07-24T07:39:13.838Z,7252
2018-07-24T07:39:54.218Z,7244
2018-07-24T07:40:34.724Z,7216
2018-07-24T07:41:15.240Z,7196
2018-07-24T07:41:55.732Z,7184
2018-07-24T07:42:36.228Z,7160
2018-07-24T07:43:16.741Z,7128
2018-07-24T07:43:57.462Z,7112
2018-07-24T07:44:37.759Z,7100
2018-07-24T07:45:18.330Z,7088
2018-07-24T07:45:58.792Z,7064
2018-07-24T07:46:39.359Z,7036
2018-07-24T07:47:19.876Z,7008
2018-07-24T07:48:00.338Z,6992
2018-07-24T07:48:40.912Z,6988
2018-07-24T07:49:21.488Z,6964
2018-07-24T07:50:02.037Z,6932
2018-07-24T07:50:42.685Z,6904
2018-07-24T07:51:23.157Z,6880
2018-07-24T07:52:03.537Z,6840
2018-07-24T07:52:44.068Z,6808
2018-07-24T07:53:24.541Z,6792
2018-07-24T07:54:05.261Z,6768
2018-07-24T07:54:45.842Z,6748
2018-07-24T07:55:26.393Z,6712
2018-07-24T07:56:06.867Z,6708
2018-07-24T07:56:47.415Z,6672
2018-07-24T07:57:28.047Z,6648
2018-07-24T07:58:08.575Z,6624
2018-07-24T07:58:49.182Z,6592
2018-07-24T07:59:29.626Z,6560
2018-07-24T08:00:10.045Z,6548
2018-07-24T08:00:50.564Z,6500
2018-07-24T08:01:31.041Z,6464
2018-07-24T08:02:11.626Z,6432
2018-07-24T08:02:52.152Z,6412
2018-07-24T08:03:32.672Z,6396
2018-07-24T08:04:13.157Z,6368
2018-07-24T08:04:53.664Z,6348
2018-07-24T08:05:34.144Z,6328
2018-07-24T08:06:14.636Z,6300
2018-07-24T08:06:55.177Z,6276
2018-07-24T08:07:35.723Z,6248
2018-07-24T08:08:16.258Z,6216
2018-07-24T08:08:56.754Z,6188
2018-07-24T08:09:37.255Z,6180
2018-07-24T08:10:17.767Z,6148
2018-07-24T08:10:58.249Z,6124
2018-07-24T08:11:38.766Z,6104
2018-07-24T08:12:19.389Z,6072
2018-07-24T08:12:59.757Z,6052
2018-07-24T08:13:40.269Z,6028
2018-07-24T08:14:20.794Z,6000
2018-07-24T08:15:01.222Z,5964
2018-07-24T08:15:41.797Z,5932
2018-07-24T08:16:22.359Z,5912
2018-07-24T08:17:02.879Z,5884
2018-07-24T08:17:43.417Z,5848
2018-07-24T08:18:23.885Z,5824
2018-07-24T08:19:04.346Z,5804
2018-07-24T08:19:44.848Z,5784
2018-07-24T08:20:25.320Z,5768
2018-07-24T08:21:05.801Z,5744
2018-07-24T08:21:46.347Z,5728
2018-07-24T08:22:26.894Z,5704
2018-07-24T08:23:07.384Z,5664
2018-07-24T08:23:47.854Z,5612
2018-07-24T08:24:28.367Z,5560
2018-07-24T08:25:08.887Z,5468
2018-07-24T08:25:49.344Z,5360
2018-07-24T08:26:29.824Z,5256
2018-07-24T08:27:10.323Z,5156
2018-07-24T08:27:50.841Z,5072
2018-07-24T08:28:31.298Z,5008
2018-07-24T08:29:11.833Z,4984
2018-07-24T08:29:52.337Z,4952
2018-07-24T08:30:32.822Z,4932
2018-07-24T08:31:13.359Z,4912
2018-07-24T08:31:53.813Z,4896
2018-07-24T08:32:34.385Z,4884
2018-07-24T08:33:14.875Z,4868
2018-07-24T08:33:55.385Z,4856
2018-07-24T08:34:35.903Z,4840
2018-07-24T08:35:16.384Z,4812
2018-07-24T08:35:56.902Z,4800
2018-07-24T08:36:37.360Z,4780
2018-07-24T08:37:17.866Z,4764
2018-07-24T08:37:58.380Z,4752
2018-07-24T08:38:38.918Z,4728
2018-07-24T08:39:19.421Z,4728
2018-07-24T08:39:59.949Z,4704
2018-07-24T08:40:40.449Z,4688
2018-07-24T08:41:20.964Z,4672
2018-07-24T08:42:01.456Z,4652
2018-07-24T08:42:41.976Z,4628
2018-07-24T08:43:22.445Z,4604
2018-07-24T08:44:03.017Z,4580
2018-07-24T08:44:43.563Z,4564
2018-07-24T08:45:24.029Z,4552
2018-07-24T08:46:04.539Z,4540
2018-07-24T08:46:45.078Z,4516
2018-07-24T08:47:25.548Z,4496
2018-07-24T08:48:06.032Z,4468
2018-07-24T08:48:46.558Z,4440
2018-07-24T08:49:27.090Z,4416
2018-07-24T08:50:07.733Z,4404
2018-07-24T08:50:48.297Z,4380
2018-07-24T08:51:28.798Z,4368
2018-07-24T08:52:09.325Z,4352
2018-07-24T08:52:50.059Z,4344
2018-07-24T08:53:30.802Z,4324
2018-07-24T08:54:11.145Z,4316
2018-07-24T08:54:51.722Z,4292
2018-07-24T08:55:32.310Z,4280
2018-07-24T08:56:12.498Z,4272
2018-07-24T08:56:52.998Z,4264
2018-07-24T08:57:33.554Z,4252
2018-07-24T08:58:14.056Z,4244
2018-07-24T08:58:54.529Z,4228
2018-07-24T08:59:35.073Z,4208
2018-07-24T09:00:15.570Z,4192
2018-07-24T09:00:56.079Z,4168
2018-07-24T09:01:36.555Z,4148
2018-07-24T09:02:17.074Z,4136
2018-07-24T09:02:57.586Z,4128
2018-07-24T09:03:38.142Z,4120
2018-07-24T09:04:18.600Z,4116
2018-07-24T09:04:59.090Z,4112
2018-07-24T09:05:39.574Z,4116
2018-07-24T09:06:20.103Z,4108
2018-07-24T09:07:00.580Z,4100
2018-07-24T09:07:41.087Z,4100
2018-07-24T09:08:21.618Z,4084
2018-07-24T09:09:02.068Z,4080
2018-07-24T09:09:42.595Z,4064
2018-07-24T09:10:23.062Z,4040
2018-07-24T09:11:03.554Z,4012
2018-07-24T09:11:44.051Z,3996
2018-07-24T09:12:24.657Z,3992
2018-07-24T09:13:05.296Z,3992
2018-07-24T09:13:45.823Z,3980
2018-07-24T09:14:26.310Z,3972
2018-07-24T09:15:06.801Z,3960
2018-07-24T09:15:47.336Z,3940
2018-07-24T09:16:27.860Z,3928
2018-07-24T09:17:08.365Z,3916
2018-07-24T09:17:48.889Z,3912
2018-07-24T09:18:29.392Z,3900
2018-07-24T09:19:09.881Z,3900
2018-07-24T09:19:50.423Z,3892
2018-07-24T09:20:30.890Z,3888
2018-07-24T09:21:11.472Z,3876
2018-07-24T09:21:51.926Z,3868
2018-07-24T09:22:32.442Z,3848
2018-07-24T09:23:12.948Z,3844